createdAt,value
2019-05-25T00:01:56.384Z,4.17
2019-05-25T00:04:23.865Z,4.40
2019-05-25T00:06:51.466Z,4.50
2019-05-25T00:09:18.845Z,4.27
2019-05-25T00:11:46.371Z,4.20
2019-05-25T00:14:13.901Z,4.27
2019-05-25T00:16:41.482Z,4.03
2019-05-25T00:19:09.242Z,4.03
2019-05-25T00:21:36.881Z,4.07
2019-05-25T00:24:12.068Z,4.27
2019-05-25T00:26:33.969Z,4.27
2019-05-25T00:29:01.513Z,3.77
2019-05-25T00:31:30.655Z,3.63
2019-05-25T00:33:58.222Z,4.10
2019-05-25T00:36:25.715Z,4.10
2019-05-25T00:38:53.378Z,3.97
2019-05-25T00:41:20.968Z,3.87
2019-05-25T00:43:48.386Z,4.00
2019-05-25T00:46:15.849Z,4.13
2019-05-25T00:48:43.335Z,3.90
2019-05-25T00:51:11.397Z,3.87
2019-05-25T00:53:38.893Z,3.43
2019-05-25T00:56:06.469Z,3.87
2019-05-25T00:58:34.033Z,3.80
2019-05-25T01:01:01.655Z,3.90
2019-05-25T01:03:29.253Z,4.43
2019-05-25T01:05:56.813Z,4.20
2019-05-25T01:08:30.223Z,3.93
2019-05-25T01:10:57.719Z,3.80
2019-05-25T01:13:25.251Z,4.10
2019-05-25T01:15:52.779Z,4.10
2019-05-25T01:18:20.208Z,3.90
2019-05-25T01:20:47.827Z,3.93
2019-05-25T01:23:15.247Z,3.87
2019-05-25T01:25:42.784Z,3.50
2019-05-25T01:28:10.273Z,3.50
2019-05-25T01:30:37.787Z,3.97
2019-05-25T01:33:05.309Z,3.67
2019-05-25T01:35:32.740Z,3.67
2019-05-25T01:38:00.283Z,4.17
2019-05-25T01:40:27.711Z,3.87
2019-05-25T01:42:55.107Z,3.93
2019-05-25T01:45:22.554Z,4.73
2019-05-25T01:47:50.251Z,4.63
2019-05-25T01:50:17.673Z,4.30
2019-05-25T01:52:45.359Z,4.37
2019-05-25T01:55:13.148Z,4.30
2019-05-25T01:57:40.775Z,4.07
2019-05-25T02:00:09.545Z,3.80
2019-05-25T02:02:37.108Z,4.20
2019-05-25T02:05:05.314Z,3.60
2019-05-25T02:07:32.835Z,3.70
2019-05-25T02:10:00.288Z,3.93
2019-05-25T02:12:29.242Z,3.90
2019-05-25T02:14:56.712Z,3.93
2019-05-25T02:17:24.210Z,3.80
2019-05-25T02:19:51.746Z,3.70
2019-05-25T02:22:19.317Z,3.70
2019-05-25T02:24:46.848Z,3.50
2019-05-25T02:27:14.324Z,3.80
2019-05-25T02:29:41.778Z,3.63
2019-05-25T02:32:09.180Z,4.10
2019-05-25T02:34:36.668Z,4.10
2019-05-25T02:37:04.144Z,3.80
2019-05-25T02:39:31.510Z,4.00
2019-05-25T02:41:59.008Z,3.70
2019-05-25T02:44:26.366Z,3.60
2019-05-25T02:46:53.923Z,3.70
2019-05-25T02:49:21.459Z,3.77
2019-05-25T02:51:48.938Z,3.50
2019-05-25T02:54:16.381Z,3.40
2019-05-25T02:56:43.781Z,3.83
2019-05-25T02:59:11.100Z,3.83
2019-05-25T03:01:38.673Z,3.80
2019-05-25T03:04:06.300Z,3.90
2019-05-25T03:06:34.562Z,3.73
2019-05-25T03:09:04.814Z,3.67
2019-05-25T03:12:02.905Z,3.77
2019-05-25T03:14:35.522Z,3.80
2019-05-25T03:17:03.036Z,3.77
2019-05-25T03:19:30.489Z,3.83
2019-05-25T03:21:59.087Z,3.90
2019-05-25T03:24:39.070Z,4.07
2019-05-25T03:27:06.470Z,4.00
2019-05-25T03:29:33.975Z,3.97
2019-05-25T03:32:01.548Z,4.40
2019-05-25T03:34:29.041Z,4.00
2019-05-25T03:36:56.491Z,4.10
2019-05-25T03:39:23.941Z,4.40
2019-05-25T03:41:51.362Z,3.80
2019-05-25T03:44:18.957Z,4.03
2019-05-25T03:46:46.538Z,4.27
2019-05-25T03:49:14.031Z,3.93
2019-05-25T03:51:41.616Z,4.03
2019-05-25T03:54:09.073Z,3.97
2019-05-25T03:56:36.653Z,3.97
2019-05-25T03:59:04.135Z,3.77
2019-05-25T04:01:31.980Z,4.00
2019-05-25T04:03:59.386Z,4.00
2019-05-25T04:06:27.010Z,4.03
2019-05-25T04:08:54.643Z,4.07
2019-05-25T04:11:22.161Z,3.70
2019-05-25T04:13:49.689Z,4.50
2019-05-25T04:16:17.153Z,3.87
2019-05-25T04:18:44.610Z,4.20
2019-05-25T04:21:12.025Z,4.57
2019-05-25T04:23:39.470Z,3.97
2019-05-25T04:26:21.349Z,4.33
2019-05-25T04:28:36.217Z,4.10
2019-05-25T04:31:03.720Z,4.07
2019-05-25T04:33:31.197Z,3.97
2019-05-25T04:35:58.575Z,4.20
2019-05-25T04:38:25.981Z,4.53
2019-05-25T04:40:53.629Z,3.93
2019-05-25T04:43:21.071Z,4.33
2019-05-25T04:45:48.527Z,4.00
2019-05-25T04:48:16.030Z,4.67
2019-05-25T04:50:43.349Z,4.10
2019-05-25T04:53:10.988Z,4.30
2019-05-25T04:55:38.534Z,4.67
2019-05-25T04:58:05.898Z,4.23
2019-05-25T05:00:33.306Z,4.30
2019-05-25T05:03:00.672Z,4.70
2019-05-25T05:05:28.154Z,4.30
2019-05-25T05:07:55.564Z,4.23
2019-05-25T05:10:22.944Z,4.97
2019-05-25T05:12:50.350Z,4.37
2019-05-25T05:15:17.858Z,4.20
2019-05-25T05:17:45.476Z,4.77
2019-05-25T05:20:12.785Z,4.27
2019-05-25T05:22:40.184Z,4.57
2019-05-25T05:25:08.554Z,4.70
2019-05-25T05:27:36.902Z,4.87
2019-05-25T05:30:05.482Z,4.80
2019-05-25T05:32:33.142Z,4.97
2019-05-25T05:35:00.594Z,4.67
2019-05-25T05:37:29.126Z,5.00
2019-05-25T05:39:57.073Z,5.17
2019-05-25T05:42:27.088Z,4.70
2019-05-25T05:44:56.142Z,4.93
2019-05-25T05:47:24.907Z,4.53
2019-05-25T05:49:54.811Z,4.33
2019-05-25T05:52:25.736Z,5.07
2019-05-25T05:54:54.706Z,5.77
2019-05-25T05:57:22.208Z,4.57
2019-05-25T05:59:49.554Z,4.80
2019-05-25T06:02:16.968Z,5.10
2019-05-25T06:04:44.426Z,4.87
2019-05-25T06:07:11.765Z,5.10
2019-05-25T06:09:39.262Z,5.93
2019-05-25T06:12:06.753Z,5.10
2019-05-25T06:14:34.274Z,5.47
2019-05-25T06:17:01.754Z,5.43
2019-05-25T06:19:29.192Z,5.40
2019-05-25T06:21:56.783Z,5.40
2019-05-25T06:24:24.457Z,5.00
2019-05-25T06:26:52.176Z,5.27
2019-05-25T06:29:19.906Z,5.50
2019-05-25T06:31:47.493Z,5.73
2019-05-25T06:34:14.952Z,5.30
2019-05-25T06:36:42.517Z,5.47
2019-05-25T06:39:09.974Z,5.80
2019-05-25T06:41:39.386Z,5.50
2019-05-25T06:44:10.617Z,4.80
2019-05-25T06:46:39.872Z,5.53
2019-05-25T06:49:07.537Z,5.23
2019-05-25T06:51:35.011Z,4.67
2019-05-25T06:54:02.553Z,5.03
2019-05-25T06:56:29.987Z,4.73
2019-05-25T06:58:57.672Z,4.97
2019-05-25T07:01:25.007Z,5.13
2019-05-25T07:03:52.392Z,5.70
2019-05-25T07:06:19.751Z,5.60
2019-05-25T07:08:47.270Z,5.60
2019-05-25T07:11:14.705Z,5.47
2019-05-25T07:13:42.274Z,5.13
2019-05-25T07:16:09.758Z,4.67
2019-05-25T07:18:37.227Z,4.93
2019-05-25T07:21:04.705Z,4.60
2019-05-25T07:23:32.256Z,4.97
2019-05-25T07:25:59.650Z,5.30
2019-05-25T07:28:27.127Z,4.70
2019-05-25T07:30:54.505Z,4.97
2019-05-25T07:33:21.909Z,5.10
2019-05-25T07:35:49.348Z,5.13
2019-05-25T07:38:16.883Z,5.20
2019-05-25T07:40:44.238Z,5.30
2019-05-25T07:43:11.669Z,4.53
2019-05-25T07:45:39.168Z,4.93
2019-05-25T07:48:07.108Z,5.13
2019-05-25T07:50:34.534Z,5.50
2019-05-25T07:53:01.988Z,5.07
2019-05-25T07:55:39.568Z,5.37
2019-05-25T07:58:16.754Z,4.70
2019-05-25T08:00:36.465Z,4.47
2019-05-25T08:03:04.035Z,5.13
2019-05-25T08:05:31.467Z,4.63
2019-05-25T08:08:10.660Z,5.13
2019-05-25T08:10:38.066Z,5.17
2019-05-25T08:13:05.466Z,4.50
2019-05-25T08:15:32.930Z,5.30
2019-05-25T08:18:02.413Z,4.40
2019-05-25T08:24:21.506Z,4.77
2019-05-25T08:26:49.014Z,4.83
2019-05-25T08:29:16.445Z,4.40
2019-05-25T08:31:44.094Z,4.60
2019-05-25T08:34:11.530Z,4.23
2019-05-25T08:36:38.842Z,5.03
2019-05-25T08:39:09.268Z,4.97
2019-05-25T08:41:36.848Z,4.23
2019-05-25T08:44:04.667Z,4.47
2019-05-25T08:46:32.183Z,4.33
2019-05-25T08:48:59.620Z,3.83
2019-05-25T08:51:27.188Z,4.57
2019-05-25T08:53:54.764Z,5.23
2019-05-25T08:56:22.731Z,4.50
2019-05-25T08:58:50.263Z,4.83
2019-05-25T09:01:17.687Z,4.40
2019-05-25T09:04:25.525Z,4.53
2019-05-25T09:06:51.780Z,4.07
2019-05-25T09:09:19.215Z,4.67
2019-05-25T09:11:46.594Z,4.80
2019-05-25T09:14:16.383Z,4.17
2019-05-25T09:16:43.799Z,4.80
2019-05-25T09:19:11.196Z,4.33
2019-05-25T09:21:38.639Z,4.07
2019-05-25T09:24:06.167Z,4.30
2019-05-25T09:26:33.648Z,4.40
2019-05-25T09:29:04.414Z,4.07
2019-05-25T09:31:30.531Z,3.87
2019-05-25T09:33:58.152Z,4.17
2019-05-25T09:36:25.508Z,4.10
2019-05-25T09:38:56.216Z,4.83
2019-05-25T09:41:23.694Z,4.30
2019-05-25T09:43:51.278Z,4.13
2019-05-25T09:46:18.853Z,5.07
2019-05-25T09:48:46.457Z,4.73
2019-05-25T09:51:15.770Z,4.20
2019-05-25T09:53:43.547Z,4.53
2019-05-25T09:56:11.091Z,4.10
2019-05-25T09:58:38.496Z,4.47
2019-05-25T10:01:06.007Z,4.37
2019-05-25T10:03:33.387Z,4.47
2019-05-25T10:06:10.055Z,4.40
2019-05-25T10:08:30.212Z,3.80
2019-05-25T10:10:57.619Z,3.90
2019-05-25T10:13:25.516Z,3.70
2019-05-25T10:15:53.112Z,4.17
2019-05-25T10:18:20.740Z,4.40
2019-05-25T10:20:48.505Z,4.60
2019-05-25T10:23:16.042Z,4.77
2019-05-25T10:25:43.381Z,4.57
2019-05-25T10:28:10.766Z,4.80
2019-05-25T10:30:38.211Z,5.70
2019-05-25T10:33:05.669Z,5.10
2019-05-25T10:35:33.013Z,5.40
2019-05-25T10:38:00.450Z,5.00
2019-05-25T10:40:27.936Z,5.17
2019-05-25T10:42:55.416Z,5.50
2019-05-25T10:45:22.926Z,5.27
2019-05-25T10:47:50.392Z,5.30
2019-05-25T10:50:18.872Z,5.13
2019-05-25T10:52:46.219Z,4.77
2019-05-25T10:55:14.356Z,4.67
2019-05-25T10:57:41.908Z,4.90
2019-05-25T11:00:09.962Z,4.70
2019-05-25T11:02:37.479Z,4.53
2019-05-25T11:05:05.925Z,4.40
2019-05-25T11:07:33.341Z,4.73
2019-05-25T11:10:00.736Z,4.60
2019-05-25T11:12:28.336Z,4.30
2019-05-25T11:14:55.864Z,4.33
2019-05-25T11:17:23.357Z,5.73
2019-05-25T11:19:50.874Z,4.90
2019-05-25T11:22:18.436Z,4.80
2019-05-25T11:24:45.803Z,4.70
2019-05-25T11:27:13.234Z,3.73
2019-05-25T11:29:40.569Z,4.20
2019-05-25T11:32:20.209Z,3.80
2019-05-25T11:34:47.891Z,4.10
2019-05-25T11:37:15.857Z,4.23
2019-05-25T11:39:43.700Z,4.10
2019-05-25T11:42:11.411Z,3.90
2019-05-25T11:44:38.856Z,3.87
2019-05-25T11:47:06.255Z,4.00
2019-05-25T11:49:33.789Z,4.17
2019-05-25T11:52:01.170Z,4.03
2019-05-25T11:54:28.815Z,4.17
2019-05-25T11:56:56.281Z,4.20
2019-05-25T11:59:23.845Z,3.80
2019-05-25T12:01:51.947Z,4.20
2019-05-25T12:04:19.373Z,4.60
2019-05-25T12:06:46.767Z,4.60
2019-05-25T12:09:14.260Z,4.57
2019-05-25T12:11:44.441Z,4.40
2019-05-25T12:14:11.812Z,4.63
2019-05-25T12:16:39.206Z,4.50
2019-05-25T12:19:06.661Z,4.10
2019-05-25T12:21:34.150Z,4.20
2019-05-25T12:24:01.549Z,3.70
2019-05-25T12:26:33.225Z,4.03
2019-05-25T12:29:02.097Z,4.00
2019-05-25T12:31:29.474Z,4.20
2019-05-25T12:33:56.842Z,4.10
2019-05-25T12:36:24.250Z,4.00
2019-05-25T12:38:51.750Z,4.60
2019-05-25T12:41:19.274Z,4.40
2019-05-25T12:43:46.611Z,4.27
2019-05-25T12:46:13.959Z,4.33
2019-05-25T12:48:41.328Z,4.17
2019-05-25T12:51:09.069Z,4.10
2019-05-25T12:53:36.585Z,3.73
2019-05-25T12:56:04.006Z,4.03
2019-05-25T12:58:32.522Z,4.00
2019-05-25T13:01:00.109Z,4.50
2019-05-25T13:03:28.466Z,4.47
2019-05-25T13:05:56.193Z,4.60
2019-05-25T13:08:23.551Z,4.50
2019-05-25T13:10:51.083Z,4.10
2019-05-25T13:13:18.477Z,4.07
2019-05-25T13:15:46.127Z,4.43
2019-05-25T13:18:13.661Z,3.97
2019-05-25T13:20:41.165Z,4.30
2019-05-25T13:23:08.619Z,3.87
2019-05-25T13:25:49.892Z,3.80
2019-05-25T13:28:13.033Z,4.63
2019-05-25T13:30:40.482Z,4.60
2019-05-25T13:33:07.995Z,4.10
2019-05-25T13:35:35.802Z,4.37
2019-05-25T13:38:03.692Z,4.20
2019-05-25T13:40:31.105Z,4.40
2019-05-25T13:42:58.582Z,4.40
2019-05-25T13:45:26.027Z,4.20
2019-05-25T13:47:53.547Z,4.00
2019-05-25T13:50:21.163Z,4.20
2019-05-25T13:52:48.578Z,4.33
2019-05-25T13:55:16.566Z,3.90
2019-05-25T13:57:44.081Z,4.30
2019-05-25T14:00:12.345Z,4.40
2019-05-25T14:02:39.986Z,4.63
2019-05-25T14:05:07.816Z,4.33
2019-05-25T14:07:35.269Z,4.60
2019-05-25T14:10:03.385Z,5.10
2019-05-25T14:12:30.826Z,5.10
2019-05-25T14:14:58.267Z,4.50
2019-05-25T14:17:25.792Z,4.23
2019-05-25T14:19:53.282Z,4.17
2019-05-25T14:22:20.752Z,4.30
2019-05-25T14:24:48.232Z,3.90
2019-05-25T14:27:15.646Z,4.03
2019-05-25T14:29:43.176Z,4.20
2019-05-25T14:32:10.666Z,4.47
2019-05-25T14:34:38.102Z,3.67
2019-05-25T14:37:05.480Z,4.63
2019-05-25T14:39:32.982Z,4.33
2019-05-25T14:42:00.420Z,4.23
2019-05-25T14:44:27.868Z,4.40
2019-05-25T14:46:55.441Z,4.10
2019-05-25T14:49:22.966Z,4.00
2019-05-25T14:51:50.770Z,4.20
2019-05-25T14:54:18.360Z,3.63
2019-05-25T14:57:05.646Z,4.10
2019-05-25T14:59:33.278Z,4.20
2019-05-25T15:02:02.883Z,4.10
2019-05-25T15:04:30.216Z,3.97
2019-05-25T15:06:59.197Z,3.90
2019-05-25T15:09:31.588Z,4.07
2019-05-25T15:12:00.869Z,4.57
2019-05-25T15:14:28.488Z,3.90
2019-05-25T15:16:55.966Z,4.00
2019-05-25T15:19:23.652Z,4.17
2019-05-25T15:21:51.559Z,4.40
2019-05-25T15:24:19.273Z,3.87
2019-05-25T15:26:46.701Z,4.10
2019-05-25T15:29:14.360Z,4.20
2019-05-25T15:31:41.851Z,4.33
2019-05-25T15:34:09.923Z,3.97
2019-05-25T15:36:37.418Z,3.87
2019-05-25T15:39:06.625Z,4.07
2019-05-25T15:41:34.381Z,4.10
2019-05-25T15:44:04.787Z,4.07
2019-05-25T15:46:32.282Z,4.00
2019-05-25T15:48:59.681Z,3.90
2019-05-25T15:51:28.673Z,4.17
2019-05-25T15:53:56.756Z,4.00
2019-05-25T15:56:24.257Z,3.87
2019-05-25T15:58:51.808Z,4.40
2019-05-25T16:01:19.344Z,3.83
2019-05-25T16:03:47.085Z,3.97
2019-05-25T16:06:17.049Z,4.57
2019-05-25T16:08:49.217Z,4.27
2019-05-25T16:11:17.142Z,4.93
2019-05-25T16:13:44.837Z,4.93
2019-05-25T16:16:12.287Z,4.63
2019-05-25T16:18:39.737Z,5.33
2019-05-25T16:21:07.191Z,4.67
2019-05-25T16:23:34.697Z,4.70
2019-05-25T16:28:18.417Z,4.50
2019-05-25T16:30:45.890Z,4.60
2019-05-25T16:35:42.872Z,4.80
2019-05-25T16:38:10.462Z,4.93
2019-05-25T16:40:07.832Z,4.80
2019-05-25T16:40:38.253Z,4.77
2019-05-25T16:43:05.800Z,4.80
2019-05-25T16:45:33.158Z,5.20
2019-05-25T16:48:00.562Z,5.50
2019-05-25T16:50:28.020Z,5.87
2019-05-25T16:52:55.477Z,4.60
2019-05-25T16:55:22.925Z,5.47
2019-05-25T16:57:50.412Z,4.97
2019-05-25T17:00:26.074Z,4.53
2019-05-25T17:02:53.940Z,6.30
2019-05-25T17:05:21.426Z,5.23
2019-05-25T17:07:49.236Z,4.77
2019-05-25T17:10:16.746Z,4.30
2019-05-25T17:12:44.188Z,4.10
2019-05-25T17:15:11.843Z,3.97
2019-05-25T17:17:39.246Z,4.27
2019-05-25T17:20:06.986Z,4.03
2019-05-25T17:22:34.495Z,3.60
2019-05-25T17:25:02.012Z,3.80
2019-05-25T17:27:29.565Z,4.00
2019-05-25T17:29:57.340Z,4.20
2019-05-25T17:32:24.783Z,3.90
2019-05-25T17:34:52.779Z,3.80
2019-05-25T17:37:20.880Z,3.97
2019-05-25T17:39:48.805Z,3.90
2019-05-25T17:42:36.019Z,4.20
2019-05-25T17:45:04.156Z,3.80
2019-05-25T17:47:31.752Z,4.10
2019-05-25T17:49:59.348Z,4.40
2019-05-25T17:52:27.078Z,3.83
2019-05-25T17:54:54.528Z,4.10
2019-05-25T17:57:22.502Z,3.90
2019-05-25T17:59:49.973Z,4.27
2019-05-25T18:02:17.556Z,3.90
2019-05-25T18:04:45.243Z,4.10
2019-05-25T18:07:12.738Z,3.80
2019-05-25T18:09:40.278Z,4.10
2019-05-25T18:12:07.698Z,4.30
2019-05-25T18:14:35.296Z,4.30
2019-05-25T18:17:07.287Z,4.10
2019-05-25T18:19:34.772Z,4.50
2019-05-25T18:22:02.143Z,4.20
2019-05-25T18:24:29.735Z,4.40
2019-05-25T18:26:57.183Z,5.03
2019-05-25T18:32:11.757Z,5.37
2019-05-25T18:34:39.325Z,4.40
2019-05-25T18:41:21.735Z,4.83
2019-05-25T18:43:49.174Z,4.70
2019-05-25T18:51:03.836Z,4.40
2019-05-25T18:53:31.411Z,4.13
2019-05-25T18:55:59.119Z,4.80
2019-05-25T18:58:29.474Z,4.90
2019-05-25T19:00:56.989Z,5.30
2019-05-25T19:03:28.160Z,5.60
2019-05-25T19:05:59.870Z,5.07
2019-05-25T19:08:27.368Z,5.47
2019-05-25T19:10:54.888Z,5.40
2019-05-25T19:13:22.421Z,5.10
2019-05-25T19:15:54.383Z,5.03
2019-05-25T19:18:22.144Z,5.10
2019-05-25T19:20:49.689Z,4.93
2019-05-25T19:23:17.239Z,5.57
2019-05-25T19:25:44.865Z,5.40
2019-05-25T19:28:12.295Z,5.27
2019-05-25T19:30:40.061Z,5.00
2019-05-25T19:33:27.472Z,5.10
2019-05-25T19:35:54.932Z,4.70
2019-05-25T19:38:49.897Z,5.30
2019-05-25T19:41:17.537Z,4.93
2019-05-25T19:43:45.085Z,6.10
2019-05-25T19:46:12.581Z,4.63
2019-05-25T19:48:40.166Z,4.80
2019-05-25T19:51:07.728Z,4.60
2019-05-25T19:53:35.460Z,4.60
2019-05-25T19:56:03.260Z,4.60
2019-05-25T19:58:31.334Z,4.50
2019-05-25T20:00:58.942Z,4.43
2019-05-25T20:03:26.839Z,4.40
2019-05-25T20:05:54.591Z,4.80
2019-05-25T20:08:22.020Z,4.90
2019-05-25T20:10:50.122Z,4.63
2019-05-25T20:13:17.904Z,4.60
2019-05-25T20:15:45.758Z,4.60
2019-05-25T20:18:13.501Z,4.53
2019-05-25T20:20:41.262Z,4.63
2019-05-25T20:23:09.168Z,4.57
2019-05-25T20:25:37.023Z,4.50
2019-05-25T20:28:04.942Z,4.73
2019-05-25T20:30:32.948Z,5.17
2019-05-25T20:33:00.494Z,4.63
2019-05-25T20:35:33.247Z,4.63
2019-05-25T20:37:59.096Z,4.17
2019-05-25T20:40:28.014Z,4.90
2019-05-25T20:42:55.817Z,5.27
2019-05-25T20:45:23.526Z,5.10
2019-05-25T20:47:51.355Z,4.70
2019-05-25T20:50:19.390Z,5.33
2019-05-25T20:52:47.073Z,4.97
2019-05-25T20:55:14.900Z,5.00
2019-05-25T20:57:42.657Z,5.03
2019-05-25T21:00:11.295Z,5.27
2019-05-25T21:02:40.190Z,5.70
2019-05-25T21:05:08.656Z,5.93
2019-05-25T21:07:36.501Z,5.60
2019-05-25T21:10:04.792Z,6.00
2019-05-25T21:12:32.583Z,6.50
2019-05-25T21:15:00.616Z,6.30
2019-05-25T21:17:28.784Z,6.20
2019-05-25T21:19:56.360Z,6.17
2019-05-25T21:22:24.102Z,5.70
2019-05-25T21:24:52.081Z,6.00
2019-05-25T21:27:23.942Z,5.90
2019-05-25T21:29:55.684Z,5.57
2019-05-25T21:32:26.263Z,5.97
2019-05-25T21:34:58.090Z,6.07
2019-05-25T21:37:26.092Z,6.07
2019-05-25T21:39:53.499Z,6.37
2019-05-25T21:42:21.119Z,6.03
2019-05-25T21:44:49.570Z,5.90
2019-05-25T21:47:17.486Z,6.60
2019-05-25T21:49:45.203Z,5.73
2019-05-25T21:52:13.358Z,6.67
2019-05-25T21:54:41.005Z,6.50
2019-05-25T21:57:08.484Z,7.40
2019-05-25T21:59:55.540Z,6.37
2019-05-25T22:02:23.028Z,6.40
2019-05-25T22:04:50.794Z,6.73
2019-05-25T22:07:18.423Z,6.00
2019-05-25T22:09:46.198Z,6.93
2019-05-25T22:12:14.070Z,6.57
2019-05-25T22:14:42.152Z,6.80
2019-05-25T22:17:10.000Z,5.73
2019-05-25T22:19:37.784Z,6.93
2019-05-25T22:22:07.017Z,7.10
2019-05-25T22:24:34.528Z,6.57
2019-05-25T22:27:03.337Z,6.53
2019-05-25T22:29:31.238Z,6.60
2019-05-25T22:31:58.741Z,6.30
2019-05-25T22:34:29.608Z,6.50
2019-05-25T22:36:59.430Z,5.97
2019-05-25T22:39:26.901Z,5.97
2019-05-25T22:41:56.316Z,6.20
2019-05-25T22:44:23.892Z,6.80
2019-05-25T22:46:51.375Z,5.13
2019-05-25T22:49:18.918Z,6.13
2019-05-25T22:51:49.518Z,6.00
2019-05-25T22:54:18.805Z,5.73
2019-05-25T22:56:46.372Z,5.60
2019-05-25T22:59:14.222Z,5.40
2019-05-25T23:01:42.033Z,5.47
2019-05-25T23:04:09.686Z,6.27
2019-05-25T23:06:37.216Z,5.90
2019-05-25T23:09:06.155Z,6.03
2019-05-25T23:11:34.026Z,5.20
2019-05-25T23:14:01.558Z,4.93
2019-05-25T23:16:29.196Z,5.33
2019-05-25T23:18:56.914Z,5.17
2019-05-25T23:21:30.237Z,5.27
2019-05-25T23:23:58.326Z,5.00
2019-05-25T23:26:26.182Z,5.53
2019-05-25T23:28:57.750Z,6.10
2019-05-25T23:31:26.016Z,5.70
2019-05-25T23:33:53.811Z,5.60
2019-05-25T23:36:21.461Z,5.50
2019-05-25T23:38:49.084Z,5.30
2019-05-25T23:41:16.872Z,5.37
2019-05-25T23:43:44.479Z,5.33
2019-05-25T23:46:12.074Z,5.67
2019-05-25T23:48:39.545Z,4.87
2019-05-25T23:51:07.163Z,5.13
2019-05-25T23:53:34.803Z,5.53
2019-05-25T23:56:02.501Z,5.80
2019-05-25T23:58:30.192Z,5.60
